createdAt,value
2023-01-13T00:01:55.821Z,97086.00
2023-01-13T00:04:28.961Z,97087.38
2023-01-13T00:06:59.263Z,97081.63
2023-01-13T00:09:29.610Z,97083.78
2023-01-13T00:11:59.998Z,97079.69
2023-01-13T00:14:32.410Z,97086.00
2023-01-13T00:17:02.706Z,97078.38
2023-01-13T00:19:35.877Z,97076.09
2023-01-13T00:22:06.579Z,97059.50
2023-01-13T00:24:37.010Z,97062.06
2023-01-13T00:27:07.456Z,97062.81
2023-01-13T00:29:37.860Z,97046.88
2023-01-13T00:32:08.342Z,97055.44
2023-01-13T00:34:41.318Z,97064.22
2023-01-13T00:37:13.221Z,97060.00
2023-01-13T00:39:43.573Z,97064.00
2023-01-13T00:42:26.272Z,97057.16
2023-01-13T00:44:56.667Z,97050.59
2023-01-13T00:47:27.075Z,97044.09
2023-01-13T00:50:00.154Z,97058.69
2023-01-13T00:52:30.471Z,97044.16
2023-01-13T00:55:01.051Z,97040.13
2023-01-13T00:57:31.487Z,97067.38
2023-01-13T01:00:01.903Z,97037.19
2023-01-13T01:02:32.325Z,97023.94
2023-01-13T01:05:05.404Z,97039.00
2023-01-13T01:07:35.840Z,97034.00
2023-01-13T01:10:06.466Z,97050.78
2023-01-13T01:12:38.232Z,97038.19
2023-01-13T01:15:11.080Z,97035.72
2023-01-13T01:17:41.554Z,97041.19
2023-01-13T01:20:15.722Z,97053.91
2023-01-13T01:22:46.170Z,97035.59
2023-01-13T01:25:16.573Z,97053.16
2023-01-13T01:27:46.933Z,97038.00
2023-01-13T01:30:18.606Z,97032.97
2023-01-13T01:32:48.980Z,97043.22
2023-01-13T01:35:22.002Z,97037.13
2023-01-13T01:37:52.431Z,97043.16
2023-01-13T01:40:22.975Z,97039.88
2023-01-13T01:43:05.733Z,97026.81
2023-01-13T01:45:36.411Z,97034.34
2023-01-13T01:48:09.183Z,97042.44
2023-01-13T01:50:43.392Z,97045.41
2023-01-13T01:53:19.706Z,97024.81
2023-01-13T01:55:50.665Z,97031.88
2023-01-13T01:58:26.216Z,97026.63
2023-01-13T02:00:56.711Z,97026.81
2023-01-13T02:03:27.290Z,97029.38
2023-01-13T02:06:00.542Z,97013.28
2023-01-13T02:08:30.953Z,97017.63
2023-01-13T02:11:01.387Z,97014.22
2023-01-13T02:13:29.311Z,97014.94
2023-01-13T02:16:09.427Z,97009.13
2023-01-13T02:18:58.228Z,97002.81
2023-01-13T02:21:58.319Z,97003.59
2023-01-13T02:24:58.549Z,96998.34
2023-01-13T02:27:50.615Z,97001.59
2023-01-13T02:30:48.271Z,97011.41
2023-01-13T02:33:39.416Z,96997.16
2023-01-13T02:36:18.402Z,96991.88
2023-01-13T02:38:55.485Z,96992.09
2023-01-13T02:41:44.721Z,96998.13
2023-01-13T02:44:19.894Z,96989.13
2023-01-13T02:47:00.832Z,96998.47
2023-01-13T02:49:39.044Z,96986.63
2023-01-13T02:52:15.246Z,96996.47
2023-01-13T02:54:54.189Z,96985.41
2023-01-13T02:57:27.174Z,96985.53
2023-01-13T02:59:59.124Z,96983.66
2023-01-13T03:02:32.090Z,96980.69
2023-01-13T03:05:03.410Z,96985.44
2023-01-13T03:07:58.544Z,97010.28
2023-01-13T03:10:52.873Z,96979.56
2023-01-13T03:13:41.122Z,96985.88
2023-01-13T03:16:26.844Z,96991.13
2023-01-13T03:19:13.361Z,96977.34
2023-01-13T03:21:51.673Z,96986.91
2023-01-13T03:24:29.791Z,96981.63
2023-01-13T03:27:07.602Z,96975.28
2023-01-13T03:29:42.359Z,96975.09
2023-01-13T03:32:18.637Z,96980.13
2023-01-13T03:34:55.865Z,96974.16
2023-01-13T03:37:34.556Z,96990.44
2023-01-13T03:40:12.015Z,96978.88
2023-01-13T03:43:06.890Z,96970.31
2023-01-13T03:45:36.536Z,96970.53
2023-01-13T03:48:10.745Z,96971.28
2023-01-13T03:50:50.247Z,96981.59
2023-01-13T03:53:24.119Z,96967.97
2023-01-13T03:55:59.788Z,96968.81
2023-01-13T03:58:36.119Z,96967.56
2023-01-13T04:01:16.180Z,96963.75
2023-01-13T04:03:54.970Z,96971.00
2023-01-13T04:06:40.387Z,96976.63
2023-01-13T04:09:17.937Z,96953.16
2023-01-13T04:11:56.075Z,96961.22
2023-01-13T04:14:31.106Z,96965.75
2023-01-13T04:17:01.478Z,96951.22
2023-01-13T04:19:33.087Z,96956.75
2023-01-13T04:22:06.047Z,96960.22
2023-01-13T04:24:37.280Z,96963.28
2023-01-13T04:27:07.845Z,96964.22
2023-01-13T04:29:38.211Z,96969.22
2023-01-13T04:32:08.679Z,96968.47
2023-01-13T04:34:39.034Z,96965.22
2023-01-13T04:37:12.046Z,96959.47
2023-01-13T04:39:42.405Z,96954.41
2023-01-13T04:42:12.757Z,96959.69
2023-01-13T04:44:43.117Z,96952.63
2023-01-13T04:47:13.419Z,96956.97
2023-01-13T04:49:43.821Z,96949.91
2023-01-13T04:52:16.888Z,96952.88
2023-01-13T04:54:47.157Z,96956.44
2023-01-13T04:57:17.471Z,96953.16
2023-01-13T04:59:47.883Z,96951.94
2023-01-13T05:02:20.014Z,96948.41
2023-01-13T05:04:50.964Z,96955.69
2023-01-13T05:07:23.926Z,96952.09
2023-01-13T05:09:54.267Z,96955.41
2023-01-13T05:12:37.305Z,96956.16
2023-01-13T05:15:21.859Z,96962.41
2023-01-13T05:17:52.814Z,96948.22
2023-01-13T05:20:23.485Z,96939.53
2023-01-13T05:23:08.868Z,96950.03
2023-01-13T05:25:44.471Z,96956.47
2023-01-13T05:28:15.119Z,96942.66
2023-01-13T05:30:49.639Z,96947.47
2023-01-13T05:33:23.156Z,96951.00
2023-01-13T05:35:53.493Z,96946.00
2023-01-13T05:38:26.488Z,96954.28
2023-01-13T05:41:14.596Z,96952.03
2023-01-13T05:43:44.961Z,96952.28
2023-01-13T05:46:17.833Z,96956.09
2023-01-13T05:48:48.470Z,96974.00
2023-01-13T05:51:19.339Z,96961.41
2023-01-13T05:53:52.361Z,96964.22
2023-01-13T05:56:22.659Z,96963.53
2023-01-13T05:58:52.943Z,96970.81
2023-01-13T06:01:23.447Z,96968.53
2023-01-13T06:03:53.842Z,96956.03
2023-01-13T06:06:24.232Z,96959.56
2023-01-13T06:08:57.316Z,96958.03
2023-01-13T06:11:27.539Z,96963.81
2023-01-13T06:13:57.805Z,96961.03
2023-01-13T06:16:28.192Z,96972.50
2023-01-13T06:18:58.687Z,96982.47
2023-01-13T06:21:29.084Z,96975.63
2023-01-13T06:24:02.806Z,96973.91
2023-01-13T06:26:38.682Z,96977.22
2023-01-13T06:29:10.248Z,96979.78
2023-01-13T06:31:42.771Z,96970.44
2023-01-13T06:34:16.899Z,96981.56
2023-01-13T06:36:51.998Z,96979.75
2023-01-13T06:39:30.801Z,96989.91
2023-01-13T06:42:14.404Z,96974.31
2023-01-13T06:44:44.818Z,96984.63
2023-01-13T06:47:15.202Z,96975.53
2023-01-13T06:49:45.546Z,96975.97
2023-01-13T06:52:15.840Z,96975.53
2023-01-13T06:54:48.857Z,96964.66
2023-01-13T06:57:19.135Z,96969.00
2023-01-13T06:59:50.705Z,96955.13
2023-01-13T07:02:21.264Z,96957.50
2023-01-13T07:04:51.753Z,96974.06
2023-01-13T07:07:22.114Z,96966.56
2023-01-13T07:09:55.142Z,96966.38
2023-01-13T07:12:25.450Z,96969.38
2023-01-13T07:15:08.082Z,96964.91
2023-01-13T07:17:38.371Z,96970.91
2023-01-13T07:20:11.016Z,96966.56
2023-01-13T07:22:41.356Z,96977.22
2023-01-13T07:25:15.222Z,96967.38
2023-01-13T07:27:45.697Z,96971.88
2023-01-13T07:30:17.209Z,96966.28
2023-01-13T07:32:47.603Z,96967.16
2023-01-13T07:35:23.124Z,96974.75
2023-01-13T07:37:53.675Z,96968.72
2023-01-13T07:40:26.688Z,96969.75
2023-01-13T07:43:09.570Z,96951.63
2023-01-13T07:45:39.955Z,96960.09
2023-01-13T07:48:10.533Z,96960.41
2023-01-13T07:50:43.309Z,96958.41
2023-01-13T07:53:14.409Z,96961.63
2023-01-13T07:55:47.832Z,96958.13
2023-01-13T07:58:18.279Z,96955.91
2023-01-13T08:00:48.699Z,96962.38
2023-01-13T08:03:19.079Z,96968.19
2023-01-13T08:05:50.021Z,96966.44
2023-01-13T08:08:20.847Z,96966.88
2023-01-13T08:10:53.805Z,96952.50
2023-01-13T08:13:24.265Z,96964.66
2023-01-13T08:16:02.062Z,96964.22
2023-01-13T08:18:32.911Z,96959.22
2023-01-13T08:21:07.962Z,96964.00
2023-01-13T08:23:39.053Z,96964.50
2023-01-13T08:26:14.033Z,96962.44
2023-01-13T08:28:44.707Z,96969.44
2023-01-13T08:31:17.419Z,96965.47
2023-01-13T08:33:47.934Z,96965.63
2023-01-13T08:36:18.680Z,96960.69
2023-01-13T08:38:49.184Z,96964.22
2023-01-13T08:41:42.368Z,96963.19
2023-01-13T08:44:12.714Z,96960.41
2023-01-13T08:46:44.940Z,96965.72
2023-01-13T08:49:15.417Z,96964.22
2023-01-13T08:51:45.806Z,96974.53
2023-01-13T08:54:16.922Z,97018.50
2023-01-13T08:56:50.284Z,97042.84
2023-01-13T08:59:23.033Z,97055.00
2023-01-13T09:01:53.507Z,97069.09
2023-01-13T09:04:27.825Z,97064.03
2023-01-13T09:06:58.930Z,97070.81
2023-01-13T09:09:30.108Z,97068.28
2023-01-13T09:12:15.442Z,97065.66
2023-01-13T09:14:45.827Z,97077.97
2023-01-13T09:17:16.395Z,97083.47
2023-01-13T09:19:46.969Z,97083.59
2023-01-13T09:22:19.403Z,97090.84
2023-01-13T09:24:50.085Z,97106.00
2023-01-13T09:27:23.609Z,97108.19
2023-01-13T09:29:53.916Z,97119.03
2023-01-13T09:32:24.379Z,97120.75
2023-01-13T09:35:00.898Z,97114.47
2023-01-13T09:37:34.343Z,97119.31
2023-01-13T09:40:04.886Z,97118.66
2023-01-13T09:43:01.951Z,97116.44
2023-01-13T09:45:41.399Z,97111.88
2023-01-13T09:48:18.882Z,97111.22
2023-01-13T09:51:03.676Z,97105.75
2023-01-13T09:53:40.617Z,97098.53
2023-01-13T09:56:14.116Z,97095.84
2023-01-13T09:58:48.657Z,97086.16
2023-01-13T10:01:29.447Z,97082.06
2023-01-13T10:04:03.574Z,97084.47
2023-01-13T10:06:42.205Z,97077.34
2023-01-13T10:09:21.268Z,97073.31
2023-01-13T10:12:06.209Z,97073.22
2023-01-13T10:14:46.873Z,97056.59
2023-01-13T10:17:29.143Z,97048.59
2023-01-13T10:20:08.391Z,97045.63
2023-01-13T10:22:54.901Z,97046.09
2023-01-13T10:25:52.087Z,97050.25
2023-01-13T10:28:24.126Z,97043.97
2023-01-13T10:30:57.167Z,97040.69
2023-01-13T10:33:31.062Z,97033.09
2023-01-13T10:36:04.208Z,97041.06
2023-01-13T10:38:41.467Z,97054.78
2023-01-13T10:41:27.124Z,97061.00
2023-01-13T10:44:08.558Z,97044.63
2023-01-13T10:46:56.228Z,97041.19
2023-01-13T10:49:36.481Z,97051.31
2023-01-13T10:52:27.646Z,97064.97
2023-01-13T10:55:01.127Z,97065.53
2023-01-13T10:57:31.787Z,97054.72
2023-01-13T11:00:09.015Z,97070.97
2023-01-13T11:02:42.017Z,97077.72
2023-01-13T11:05:25.535Z,97068.09
2023-01-13T11:07:58.171Z,97068.31
2023-01-13T11:10:32.528Z,97073.25
2023-01-13T11:13:10.950Z,97072.97
2023-01-13T11:15:48.513Z,97071.81
2023-01-13T11:18:34.217Z,97095.22
2023-01-13T11:21:11.096Z,97091.06
2023-01-13T11:23:51.380Z,97067.44
2023-01-13T11:26:30.481Z,97082.94
2023-01-13T11:29:11.543Z,97067.25
2023-01-13T11:31:49.188Z,96982.44
2023-01-13T11:34:33.178Z,97027.94
2023-01-13T11:37:09.899Z,97045.91
2023-01-13T11:39:54.038Z,97051.31
2023-01-13T11:42:31.058Z,97051.50
2023-01-13T11:45:21.196Z,97056.31
2023-01-13T11:47:58.397Z,97052.16
2023-01-13T11:50:43.194Z,97070.28
2023-01-13T11:53:32.660Z,97069.94
2023-01-13T11:56:21.150Z,97069.53
2023-01-13T11:59:15.398Z,97069.31
2023-01-13T12:02:03.933Z,97060.91
2023-01-13T12:04:47.333Z,97084.81
2023-01-13T12:07:24.968Z,97072.09
2023-01-13T12:10:13.212Z,97084.47
2023-01-13T12:13:00.132Z,97083.38
2023-01-13T12:15:59.952Z,97077.09
2023-01-13T12:19:22.160Z,97081.97
2023-01-13T12:22:14.033Z,97077.25
2023-01-13T12:24:52.650Z,97076.78
2023-01-13T12:27:33.646Z,97068.84
2023-01-13T12:30:16.503Z,97066.63
2023-01-13T12:32:49.037Z,97058.13
2023-01-13T12:35:35.724Z,97056.31
2023-01-13T12:38:19.501Z,97072.09
2023-01-13T12:41:04.738Z,97064.88
2023-01-13T12:43:49.209Z,97052.34
2023-01-13T12:46:56.075Z,97064.56
2023-01-13T12:49:33.205Z,97064.25
2023-01-13T12:52:20.022Z,97064.00
2023-01-13T12:55:16.999Z,97056.84
2023-01-13T12:58:18.168Z,97050.97
2023-01-13T13:01:02.682Z,97051.22
2023-01-13T13:03:37.070Z,97060.66
2023-01-13T13:06:13.584Z,97063.72
2023-01-13T13:09:07.543Z,97067.91
2023-01-13T13:11:59.732Z,97043.31
2023-01-13T13:15:07.209Z,97054.91
2023-01-13T13:17:50.499Z,97044.84
2023-01-13T13:21:06.952Z,97047.09
2023-01-13T13:24:00.876Z,97049.66
2023-01-13T13:26:39.264Z,97052.03
2023-01-13T13:29:25.359Z,97043.66
2023-01-13T13:32:32.669Z,97034.88
2023-01-13T13:35:21.496Z,97039.44
2023-01-13T13:38:18.178Z,97037.81
2023-01-13T13:41:03.001Z,97040.13
2023-01-13T13:43:54.473Z,97062.00
2023-01-13T13:46:42.474Z,97063.00
2023-01-13T13:49:16.484Z,97071.44
2023-01-13T13:51:53.254Z,97070.03
2023-01-13T13:54:25.587Z,97068.34
2023-01-13T13:56:58.182Z,97066.03
2023-01-13T13:59:33.791Z,97079.34
2023-01-13T14:02:05.046Z,97080.88
2023-01-13T14:04:40.752Z,97084.53
2023-01-13T14:07:21.372Z,97088.66
2023-01-13T14:09:58.933Z,97089.91
2023-01-13T14:12:30.807Z,97094.00
2023-01-13T14:15:01.372Z,97089.19
2023-01-13T14:17:33.685Z,97112.38
2023-01-13T14:20:10.696Z,97103.34
2023-01-13T14:22:41.189Z,97106.06
2023-01-13T14:25:31.652Z,97113.59
2023-01-13T14:28:10.590Z,97129.13
2023-01-13T14:30:41.088Z,97125.66
2023-01-13T14:33:18.281Z,97133.34
2023-01-13T14:36:27.490Z,97132.38
2023-01-13T14:39:34.954Z,97147.28
2023-01-13T14:42:05.433Z,97138.44
2023-01-13T14:44:38.971Z,97133.47
2023-01-13T14:47:26.753Z,97143.09
2023-01-13T14:50:05.286Z,97149.25
2023-01-13T14:52:49.608Z,97143.66
2023-01-13T14:55:30.775Z,97142.06
2023-01-13T14:58:26.488Z,97148.66
2023-01-13T15:01:30.576Z,97155.16
2023-01-13T15:04:28.699Z,97169.38
2023-01-13T15:07:00.565Z,97169.41
2023-01-13T15:09:42.980Z,97173.19
2023-01-13T15:12:23.669Z,97173.69
2023-01-13T15:14:56.945Z,97182.66
2023-01-13T15:17:27.008Z,97192.44
2023-01-13T15:19:57.872Z,97190.16
2023-01-13T15:22:29.609Z,97189.97
2023-01-13T15:25:02.690Z,97190.16
2023-01-13T15:27:33.048Z,97195.50
2023-01-13T15:30:03.559Z,97206.53
2023-01-13T15:32:33.943Z,97206.63
2023-01-13T15:35:04.329Z,97202.41
2023-01-13T15:37:34.699Z,97200.88
2023-01-13T15:40:15.494Z,97208.59
2023-01-13T15:42:58.245Z,97207.25
2023-01-13T15:45:41.301Z,97200.84
2023-01-13T15:48:11.726Z,97211.34
2023-01-13T15:50:42.198Z,97209.59
2023-01-13T15:53:15.080Z,97214.81
2023-01-13T15:55:52.015Z,97221.91
2023-01-13T15:58:28.269Z,97214.28
2023-01-13T16:00:59.081Z,97227.00
2023-01-13T16:03:29.521Z,97226.78
2023-01-13T16:05:59.955Z,97231.53
2023-01-13T16:08:31.115Z,97232.41
2023-01-13T16:11:03.826Z,97214.00
2023-01-13T16:13:34.117Z,97222.47
2023-01-13T16:16:05.086Z,97218.72
2023-01-13T16:18:35.408Z,97229.63
2023-01-13T16:21:05.728Z,97235.00
2023-01-13T16:23:36.037Z,97241.88
2023-01-13T16:26:14.136Z,97249.13
2023-01-13T16:28:44.461Z,97255.13
2023-01-13T16:31:27.103Z,97261.84
2023-01-13T16:33:57.698Z,97284.06
2023-01-13T16:36:28.224Z,97290.78
2023-01-13T16:39:00.898Z,97285.31
2023-01-13T16:41:33.965Z,97288.06
2023-01-13T16:44:06.261Z,97286.69
2023-01-13T16:46:37.265Z,97295.13
2023-01-13T16:49:10.679Z,97281.50
2023-01-13T16:51:41.021Z,97290.84
2023-01-13T16:54:12.002Z,97311.00
2023-01-13T16:56:45.307Z,97311.03
2023-01-13T16:59:17.840Z,97313.78
2023-01-13T17:01:48.556Z,97322.78
2023-01-13T17:04:22.084Z,97320.66
2023-01-13T17:07:00.249Z,97327.06
2023-01-13T17:09:32.205Z,97320.66
2023-01-13T17:12:05.283Z,97330.28
2023-01-13T17:14:35.638Z,97328.00
2023-01-13T17:17:06.020Z,97335.94
2023-01-13T17:19:36.285Z,97334.56
2023-01-13T17:22:06.573Z,97342.53
2023-01-13T17:24:37.780Z,97343.16
2023-01-13T17:27:10.557Z,97334.13
2023-01-13T17:29:41.129Z,97339.16
2023-01-13T17:32:12.800Z,97343.16
2023-01-13T17:34:43.085Z,97343.75
2023-01-13T17:37:15.057Z,97349.88
2023-01-13T17:39:48.531Z,97350.63
2023-01-13T17:42:21.559Z,97357.78
2023-01-13T17:44:52.006Z,97341.59
2023-01-13T17:47:22.614Z,97341.63
2023-01-13T17:49:53.034Z,97359.19
2023-01-13T17:52:23.413Z,97360.41
2023-01-13T17:54:53.677Z,97370.97
2023-01-13T17:57:26.633Z,97380.91
2023-01-13T17:59:58.314Z,97358.72
2023-01-13T18:02:30.323Z,97368.84
2023-01-13T18:05:00.740Z,97363.63
2023-01-13T18:07:31.050Z,97372.03
2023-01-13T18:10:01.365Z,97366.38
2023-01-13T18:12:35.039Z,97374.00
2023-01-13T18:15:05.636Z,97375.09
2023-01-13T18:17:36.011Z,97373.13
2023-01-13T18:20:19.285Z,97379.53
2023-01-13T18:23:01.971Z,97370.50
2023-01-13T18:25:44.635Z,97374.31
2023-01-13T18:28:17.598Z,97373.13
2023-01-13T18:30:47.935Z,97402.50
2023-01-13T18:33:18.391Z,97400.97
2023-01-13T18:35:48.710Z,97408.91
2023-01-13T18:38:19.417Z,97400.50
2023-01-13T18:40:49.833Z,97396.66
2023-01-13T18:43:20.246Z,97407.22
2023-01-13T18:45:54.179Z,97422.53
2023-01-13T18:48:24.555Z,97412.13
2023-01-13T18:50:55.039Z,97402.94
2023-01-13T18:53:25.435Z,97408.00
2023-01-13T18:55:58.780Z,97411.19
2023-01-13T18:58:33.185Z,97424.81
2023-01-13T19:01:08.039Z,97428.97
2023-01-13T19:03:38.383Z,97415.66
2023-01-13T19:06:14.677Z,97426.38
2023-01-13T19:08:45.414Z,97450.84
2023-01-13T19:11:15.881Z,97433.84
2023-01-13T19:13:49.221Z,97436.13
2023-01-13T19:16:21.525Z,97442.13
2023-01-13T19:18:52.437Z,97443.78
2023-01-13T19:21:24.719Z,97454.31
2023-01-13T19:23:56.564Z,97441.94
2023-01-13T19:26:26.953Z,97451.91
2023-01-13T19:28:59.896Z,97467.94
2023-01-13T19:31:30.433Z,97471.00
2023-01-13T19:34:00.857Z,97493.47
2023-01-13T19:36:31.161Z,97474.09
2023-01-13T19:39:01.905Z,97484.66
2023-01-13T19:41:44.688Z,97484.94
2023-01-13T19:44:30.076Z,97487.25
2023-01-13T19:47:00.922Z,97490.31
2023-01-13T19:49:31.273Z,97490.31
2023-01-13T19:52:01.611Z,97488.16
2023-01-13T19:54:32.192Z,97495.22
2023-01-13T19:57:02.559Z,97489.84
2023-01-13T19:59:35.727Z,97490.91
2023-01-13T20:02:09.325Z,97494.28
2023-01-13T20:04:44.371Z,97507.91
2023-01-13T20:07:16.537Z,97502.50
2023-01-13T20:09:47.317Z,97494.69
2023-01-13T20:12:17.865Z,97515.22
2023-01-13T20:14:50.861Z,97511.88
2023-01-13T20:17:23.376Z,97520.28
2023-01-13T20:19:53.661Z,97511.09
2023-01-13T20:22:24.046Z,97514.16
2023-01-13T20:24:55.423Z,97515.69
2023-01-13T20:27:26.864Z,97519.69
2023-01-13T20:29:59.736Z,97529.00
2023-01-13T20:32:30.092Z,97519.06
2023-01-13T20:35:00.366Z,97519.34
2023-01-13T20:37:31.120Z,97513.41
2023-01-13T20:40:01.870Z,97520.78
2023-01-13T20:42:30.044Z,97511.41
2023-01-13T20:45:04.053Z,97515.25
2023-01-13T20:47:34.447Z,97513.25
2023-01-13T20:50:04.916Z,97498.56
2023-01-13T20:52:35.485Z,97514.34
2023-01-13T20:55:06.093Z,97516.72
2023-01-13T20:57:41.092Z,97525.75
2023-01-13T21:00:23.066Z,97534.66
2023-01-13T21:02:53.354Z,97532.50
2023-01-13T21:05:23.751Z,97540.28
2023-01-13T21:07:54.114Z,97535.59
2023-01-13T21:10:25.939Z,97535.75
2023-01-13T21:13:08.564Z,97543.72
2023-01-13T21:15:41.468Z,97537.59
2023-01-13T21:18:24.147Z,97541.88
2023-01-13T21:21:11.585Z,97539.44
2023-01-13T21:23:42.737Z,97554.91
2023-01-13T21:26:15.709Z,97555.53
2023-01-13T21:28:46.005Z,97543.00
2023-01-13T21:31:19.831Z,97554.75
2023-01-13T21:33:50.147Z,97557.84
2023-01-13T21:36:20.484Z,97555.53
2023-01-13T21:38:54.926Z,97559.50
2023-01-13T21:41:38.264Z,97565.63
2023-01-13T21:44:21.142Z,97558.88
2023-01-13T21:47:06.528Z,97565.94
2023-01-13T21:49:44.037Z,97578.47
2023-01-13T21:52:15.115Z,97576.94
2023-01-13T21:54:57.684Z,97586.16
2023-01-13T21:57:28.054Z,97582.91
2023-01-13T21:59:58.410Z,97580.31
2023-01-13T22:02:32.097Z,97604.06
2023-01-13T22:05:04.435Z,97598.34
2023-01-13T22:07:36.596Z,97593.88
2023-01-13T22:10:10.920Z,97609.91
2023-01-13T22:12:43.341Z,97599.97
2023-01-13T22:15:15.448Z,97610.06
2023-01-13T22:17:48.629Z,97608.53
2023-01-13T22:20:19.500Z,97604.72
2023-01-13T22:22:50.393Z,97603.19
2023-01-13T22:25:22.177Z,97602.25
2023-01-13T22:28:03.560Z,97613.56
2023-01-13T22:30:36.754Z,97604.09
2023-01-13T22:33:09.965Z,97604.28
2023-01-13T22:35:40.736Z,97613.75
2023-01-13T22:38:13.888Z,97618.50
2023-01-13T22:40:44.185Z,97618.84
2023-01-13T22:43:14.548Z,97616.84
2023-01-13T22:45:44.987Z,97624.34
2023-01-13T22:48:18.033Z,97626.81
2023-01-13T22:50:48.313Z,97631.09
2023-01-13T22:53:18.598Z,97636.13
2023-01-13T22:55:57.610Z,97635.38
2023-01-13T22:58:28.444Z,97631.88
2023-01-13T23:00:59.094Z,97635.06
2023-01-13T23:03:32.090Z,97642.16
2023-01-13T23:06:02.724Z,97641.88
2023-01-13T23:08:33.131Z,97646.56
2023-01-13T23:11:09.478Z,97645.00
2023-01-13T23:13:44.043Z,97647.47
2023-01-13T23:16:17.038Z,97649.63
2023-01-13T23:18:53.678Z,97653.28
2023-01-13T23:21:26.587Z,97651.16
2023-01-13T23:23:58.792Z,97657.56
2023-01-13T23:26:30.906Z,97659.03
2023-01-13T23:29:07.290Z,97655.56
2023-01-13T23:31:40.755Z,97654.78
2023-01-13T23:34:13.675Z,97657.66
2023-01-13T23:36:44.606Z,97667.13
2023-01-13T23:39:14.979Z,97666.06
2023-01-13T23:41:45.314Z,97664.34
2023-01-13T23:44:15.591Z,97660.38
2023-01-13T23:46:45.969Z,97665.88
2023-01-13T23:49:18.876Z,97671.06
2023-01-13T23:51:49.170Z,97675.69
2023-01-13T23:54:19.515Z,97670.28
2023-01-13T23:56:52.702Z,97673.88
2023-01-13T23:59:23.816Z,97677.84
